Portada
METAR-TAF:

METAR-TAF

Aeroports :

Northwest Arkansas Regional Airport

Fayetteville, Arkansas, Estats Units d'Amèrica

latitud: 36-16-55N, longitud: 094-18-25W, altitud: 392 m

Observació

L'informe es va fer fa 32 minuts, a les 04:53 UTC
Vent calma
Temperatura 23°C
Humitat 83%
Pressió 1024 hPa
Visibilitat: 16.1 km
Cel clar

METAR: KXNA 200453Z AUTO 00000KT 10SM CLR 23/20 A3023 RMK AO2 SLP222 T02330200

Hora: 00:25 (05:25 UTC)

Pronòstic

L'informe es va fer fa 6 hores i 5 minuts, a les 23:20 UTC
Pronòstic vàlid del 20 a les 00 UTC al 20 a les 24 UTC
Vent 5 kt del Sud-Est
Visibilitat: 10 km
Núvols disperses a una alçada de 7000 ft
A partir de les 20 a les 0200 UTC
Vent 3 kt amb direcció variable
Visibilitat: 10 km
Núvols disperses a una alçada de 15000 ft
A partir de les 20 a les 1500 UTC
Vent 6 kt del Sud-Est
Visibilitat: 10 km
Núvols disperses a una alçada de 3500 ft

TAF: KXNA 192320Z 2000/2024 13005KT P6SM SCT070 FM200200 VRB03KT P6SM SCT150 FM201500 13006KT P6SM SCT035

Observacions i pronòstics meteorològics de més de 4000 aeroports (METAR i TAF).

Les estacions disponibles són els punts grocs i vermells al mapa.

Posi el ratolí al punt desitjat per veure el nom de l'estació.

Feu clic per veure les observacions i els pronòstics meteorològics.

Per canviar el mapa: feu clic els botons verds amb una creu de color negre per apropar; al botó verd amb un guió per allunyar la imatge; o en les fletxes verdes per a mapes adjacents.


METAR-TAF: